Weather at Priština Adem Jashari International Airport

Public forecast

Using degrees Celsius for public forecast. Weather courtesy of forecast.io.

Current aviation weather report (METAR) for Priština Adem Jashari International Airport

Report is more than 6 hours old.

Retrieved 2022/09/17 19:00 UTC (10 days ago):

BKPR 171900Z 19011KT 9999 SCT060 20/14 Q1002 NOSIG

Aviation forecast (TAF) for Priština Adem Jashari International Airport

Forecast is more than 12 hours old.

Retrieved 2022/09/17 18:30 UTC (10 days ago):

TAF BKPR 171730Z 1718/1818 21008KT 9999 SCT040 BECMG 1722/1724 34012KT TEMPO 1802/1806 2500 -DZ BR BKN012